createdAt,value
2019-05-18T00:00:55.881Z,20.10
2019-05-18T00:03:25.210Z,21.27
2019-05-18T00:05:54.513Z,21.83
2019-05-18T00:08:23.927Z,21.50
2019-05-18T00:10:53.238Z,20.90
2019-05-18T00:13:22.568Z,20.23
2019-05-18T00:15:52.256Z,21.40
2019-05-18T00:18:21.590Z,21.80
2019-05-18T00:20:51.052Z,22.87
2019-05-18T00:23:20.622Z,23.53
2019-05-18T00:25:50.134Z,22.43
2019-05-18T00:28:19.496Z,22.37
2019-05-18T00:30:49.474Z,21.83
2019-05-18T00:33:18.844Z,18.90
2019-05-18T00:35:48.166Z,21.10
2019-05-18T00:38:17.676Z,21.07
2019-05-18T00:40:47.001Z,20.83
2019-05-18T00:43:16.361Z,20.27
2019-05-18T00:45:45.989Z,20.47
2019-05-18T00:48:15.248Z,19.30
2019-05-18T00:50:44.599Z,19.27
2019-05-18T00:53:14.277Z,20.10
2019-05-18T00:55:43.572Z,18.77
2019-05-18T00:58:12.870Z,17.80
2019-05-18T01:00:42.700Z,18.03
2019-05-18T01:03:11.967Z,16.97
2019-05-18T01:05:41.310Z,17.27
2019-05-18T01:08:10.673Z,18.57
2019-05-18T01:10:39.967Z,17.13
2019-05-18T01:13:09.305Z,18.17
2019-05-18T01:15:38.837Z,17.20
2019-05-18T01:18:08.164Z,17.00
2019-05-18T01:20:37.478Z,16.67
2019-05-18T01:23:06.986Z,17.87
2019-05-18T01:25:36.293Z,17.30
2019-05-18T01:28:05.614Z,18.50
2019-05-18T01:30:35.109Z,16.10
2019-05-18T01:33:04.482Z,17.70
2019-05-18T01:35:33.827Z,20.23
2019-05-18T01:38:03.194Z,21.70
2019-05-18T01:40:32.660Z,19.87
2019-05-18T01:43:02.066Z,19.33
2019-05-18T01:45:33.126Z,21.13
2019-05-18T01:48:13.366Z,19.07
2019-05-18T01:50:33.499Z,18.53
2019-05-18T01:53:03.223Z,17.20
2019-05-18T01:55:32.586Z,18.07
2019-05-18T01:58:01.894Z,19.17
2019-05-18T02:00:31.408Z,18.97
2019-05-18T02:03:00.703Z,18.30
2019-05-18T02:05:30.106Z,19.93
2019-05-18T02:07:59.720Z,18.30
2019-05-18T02:10:29.030Z,21.57
2019-05-18T02:12:58.304Z,21.67
2019-05-18T02:15:27.910Z,21.57
2019-05-18T02:17:57.189Z,22.13
2019-05-18T02:20:26.536Z,20.33
2019-05-18T02:22:56.258Z,19.70
2019-05-18T02:25:25.550Z,19.67
2019-05-18T02:27:54.838Z,19.73
2019-05-18T02:30:24.397Z,19.77
2019-05-18T02:32:53.750Z,16.73
2019-05-18T02:35:23.049Z,15.37
2019-05-18T02:37:54.224Z,14.60
2019-05-18T02:40:23.581Z,15.10
2019-05-18T02:42:53.120Z,15.80
2019-05-18T02:45:22.786Z,14.83
2019-05-18T02:47:52.040Z,15.13
2019-05-18T02:50:21.348Z,15.07
2019-05-18T02:52:50.841Z,15.50
2019-05-18T02:55:20.216Z,14.70
2019-05-18T02:57:49.537Z,14.43
2019-05-18T03:00:19.258Z,14.87
2019-05-18T03:02:48.542Z,16.33
2019-05-18T03:05:17.857Z,17.37
2019-05-18T03:07:47.722Z,16.73
2019-05-18T03:10:17.402Z,15.90
2019-05-18T03:12:46.932Z,14.17
2019-05-18T03:15:17.031Z,13.57
2019-05-18T03:17:46.367Z,14.17
2019-05-18T03:20:15.857Z,13.70
2019-05-18T03:25:13.732Z,14.27
2019-05-18T03:27:42.988Z,13.87
2019-05-18T03:30:12.604Z,14.23
2019-05-18T03:32:42.058Z,15.33
2019-05-18T03:35:11.481Z,14.13
2019-05-18T03:37:40.849Z,14.00
2019-05-18T03:40:10.458Z,13.37
2019-05-18T03:42:39.812Z,13.53
2019-05-18T03:45:09.526Z,14.20
2019-05-18T03:47:38.973Z,14.33
2019-05-18T03:50:08.714Z,15.23
2019-05-18T03:52:38.228Z,14.33
2019-05-18T03:55:08.010Z,15.93
2019-05-18T03:57:37.367Z,13.87
2019-05-18T04:00:08.189Z,13.67
2019-05-18T04:02:37.509Z,13.17
2019-05-18T04:05:07.130Z,12.63
2019-05-18T04:07:36.504Z,13.40
2019-05-18T04:10:06.175Z,13.17
2019-05-18T04:12:35.536Z,13.67
2019-05-18T04:15:05.471Z,14.27
2019-05-18T04:17:35.022Z,13.97
2019-05-18T04:20:04.685Z,12.67
2019-05-18T04:22:34.089Z,13.60
2019-05-18T04:25:03.605Z,13.80
2019-05-18T04:27:33.018Z,12.00
2019-05-18T04:30:02.394Z,13.23
2019-05-18T04:32:31.664Z,12.70
2019-05-18T04:35:00.924Z,12.67
2019-05-18T04:37:30.255Z,13.53
2019-05-18T04:39:59.699Z,14.17
2019-05-18T04:42:28.975Z,12.37
2019-05-18T04:44:58.319Z,13.03
2019-05-18T04:47:27.780Z,13.97
2019-05-18T04:50:05.243Z,13.87
2019-05-18T04:52:28.278Z,13.23
2019-05-18T04:54:57.696Z,13.53
2019-05-18T04:57:26.989Z,14.17
2019-05-18T04:59:56.410Z,12.83
2019-05-18T05:02:25.926Z,11.97
2019-05-18T05:04:56.672Z,12.73
2019-05-18T05:07:26.433Z,12.53
2019-05-18T05:09:55.784Z,13.90
2019-05-18T05:12:25.057Z,13.93
2019-05-18T05:14:54.441Z,14.13
2019-05-18T05:17:23.757Z,13.57
2019-05-18T05:19:53.196Z,13.27
2019-05-18T05:22:22.957Z,12.63
2019-05-18T05:24:52.556Z,12.17
2019-05-18T05:27:21.875Z,12.70
2019-05-18T05:29:51.448Z,13.47
2019-05-18T05:32:20.716Z,13.77
2019-05-18T05:34:50.187Z,12.10
2019-05-18T05:37:20.051Z,11.50
2019-05-18T05:39:49.391Z,11.83
2019-05-18T05:42:19.016Z,11.73
2019-05-18T05:44:48.527Z,11.93
2019-05-18T05:47:18.029Z,12.83
2019-05-18T05:49:47.312Z,11.43
2019-05-18T05:52:16.673Z,12.27
2019-05-18T05:54:46.269Z,12.37
2019-05-18T05:57:15.599Z,13.30
2019-05-18T05:59:44.969Z,12.50
2019-05-18T06:02:14.445Z,13.80
2019-05-18T06:04:43.752Z,14.03
2019-05-18T06:07:13.197Z,13.60
2019-05-18T06:09:42.647Z,12.83
2019-05-18T06:12:11.952Z,12.90
2019-05-18T06:14:41.332Z,14.10
2019-05-18T06:17:10.971Z,14.83
2019-05-18T06:19:40.342Z,14.77
2019-05-18T06:22:09.787Z,15.10
2019-05-18T06:24:39.562Z,15.23
2019-05-18T06:27:08.825Z,16.20
2019-05-18T06:29:38.120Z,17.33
2019-05-18T06:32:07.876Z,16.47
2019-05-18T06:34:37.382Z,15.83
2019-05-18T06:37:06.821Z,16.87
2019-05-18T06:39:36.227Z,14.83
2019-05-18T06:42:05.564Z,15.17
2019-05-18T06:44:35.000Z,16.13
2019-05-18T06:47:04.431Z,14.10
2019-05-18T06:49:33.776Z,15.73
2019-05-18T06:52:03.618Z,14.80
2019-05-18T06:54:33.243Z,15.10
2019-05-18T06:57:03.645Z,16.47
2019-05-18T06:59:33.510Z,14.77
2019-05-18T07:02:02.937Z,15.63
2019-05-18T07:04:32.319Z,14.50
2019-05-18T07:07:01.778Z,14.40
2019-05-18T07:09:31.088Z,15.63
2019-05-18T07:12:00.397Z,15.73
2019-05-18T07:14:29.845Z,14.20
2019-05-18T07:16:59.762Z,15.57
2019-05-18T07:19:29.041Z,13.40
2019-05-18T07:21:58.441Z,14.60
2019-05-18T07:24:27.889Z,15.13
2019-05-18T07:26:57.248Z,14.30
2019-05-18T07:29:26.648Z,14.90
2019-05-18T07:31:55.994Z,16.33
2019-05-18T07:34:26.696Z,14.27
2019-05-18T07:36:56.162Z,15.40
2019-05-18T07:39:25.531Z,15.30
2019-05-18T07:41:54.774Z,16.10
2019-05-18T07:44:24.146Z,14.93
2019-05-18T07:46:54.134Z,15.10
2019-05-18T07:49:23.543Z,13.47
2019-05-18T07:51:52.892Z,13.87
2019-05-18T07:54:22.358Z,11.67
2019-05-18T07:56:51.661Z,12.80
2019-05-18T07:59:21.029Z,14.57
2019-05-18T08:01:50.606Z,13.50
2019-05-18T08:04:19.856Z,11.53
2019-05-18T08:06:49.477Z,12.70
2019-05-18T08:09:18.924Z,12.93
2019-05-18T08:11:48.252Z,13.33
2019-05-18T08:14:17.710Z,13.83
2019-05-18T08:16:47.306Z,11.97
2019-05-18T08:19:16.634Z,13.57
2019-05-18T08:21:53.380Z,13.47
2019-05-18T08:24:17.545Z,11.67
2019-05-18T08:26:46.933Z,13.20
2019-05-18T08:29:16.331Z,11.30
2019-05-18T08:31:46.273Z,13.13
2019-05-18T08:34:15.588Z,11.87
2019-05-18T08:36:45.475Z,12.13
2019-05-18T08:39:14.916Z,11.77
2019-05-18T08:41:44.276Z,12.27
2019-05-18T08:44:13.601Z,12.60
2019-05-18T08:46:43.120Z,12.97
2019-05-18T08:49:12.400Z,11.23
2019-05-18T08:51:41.813Z,11.10
2019-05-18T08:54:11.637Z,11.10
2019-05-18T08:56:41.377Z,10.53
2019-05-18T08:59:10.757Z,10.07
2019-05-18T09:01:40.440Z,10.47
2019-05-18T09:04:09.729Z,11.27
2019-05-18T09:06:39.040Z,12.37
2019-05-18T09:09:08.962Z,10.97
2019-05-18T09:11:38.302Z,8.93
2019-05-18T09:14:07.763Z,9.57
2019-05-18T09:16:37.480Z,10.80
2019-05-18T09:19:06.794Z,10.20
2019-05-18T09:21:36.249Z,9.23
2019-05-18T09:24:05.902Z,9.10
2019-05-18T09:26:35.507Z,10.17
2019-05-18T09:29:05.152Z,12.97
2019-05-18T09:31:34.841Z,10.53
2019-05-18T09:34:04.149Z,9.97
2019-05-18T09:36:33.790Z,10.37
2019-05-18T09:39:04.270Z,10.37
2019-05-18T09:41:33.579Z,10.97
2019-05-18T09:44:03.363Z,10.70
2019-05-18T09:46:33.258Z,11.03
2019-05-18T09:49:02.664Z,11.70
2019-05-18T09:51:32.109Z,12.47
2019-05-18T09:54:02.075Z,10.70
2019-05-18T09:56:31.334Z,10.80
2019-05-18T09:59:00.674Z,10.67
2019-05-18T10:01:30.326Z,10.77
2019-05-18T10:03:59.690Z,10.43
2019-05-18T10:06:31.433Z,10.47
2019-05-18T10:09:01.306Z,10.47
2019-05-18T10:11:37.650Z,10.00
2019-05-18T10:14:02.249Z,10.67
2019-05-18T10:16:31.528Z,10.27
2019-05-18T10:19:00.790Z,10.10
2019-05-18T10:21:30.718Z,9.87
2019-05-18T10:24:00.094Z,9.60
2019-05-18T10:26:29.402Z,10.57
2019-05-18T10:28:59.168Z,10.03
2019-05-18T10:31:28.493Z,9.93
2019-05-18T10:33:57.804Z,11.17
2019-05-18T10:36:27.144Z,10.70
2019-05-18T10:38:56.470Z,11.00
2019-05-18T10:41:26.375Z,12.30
2019-05-18T10:43:56.652Z,11.37
2019-05-18T10:46:26.186Z,10.13
2019-05-18T10:48:55.482Z,10.70
2019-05-18T10:51:24.852Z,10.27
2019-05-18T10:53:54.208Z,11.37
2019-05-18T10:56:23.633Z,9.67
2019-05-18T10:58:53.365Z,9.30
2019-05-18T11:01:22.727Z,10.40
2019-05-18T11:03:51.982Z,10.93
2019-05-18T11:06:21.886Z,10.43
2019-05-18T11:08:51.231Z,10.17
2019-05-18T11:11:20.488Z,10.17
2019-05-18T11:13:50.197Z,9.67
2019-05-18T11:16:19.700Z,10.70
2019-05-18T11:18:49.068Z,10.20
2019-05-18T11:21:18.602Z,8.67
2019-05-18T11:23:48.187Z,9.30
2019-05-18T11:26:17.455Z,9.50
2019-05-18T11:28:47.019Z,9.60
2019-05-18T11:31:16.302Z,10.03
2019-05-18T11:33:45.598Z,9.83
2019-05-18T11:36:15.192Z,9.73
2019-05-18T11:38:44.540Z,9.97
2019-05-18T11:41:13.817Z,9.87
2019-05-18T11:43:43.110Z,10.00
2019-05-18T11:46:12.407Z,10.00
2019-05-18T11:48:41.734Z,9.20
2019-05-18T11:51:11.308Z,9.30
2019-05-18T11:53:40.664Z,10.00
2019-05-18T11:56:10.013Z,9.37
2019-05-18T11:58:39.664Z,8.33
2019-05-18T12:01:08.945Z,7.93
2019-05-18T12:03:38.305Z,8.70
2019-05-18T12:06:08.609Z,8.10
2019-05-18T12:08:37.947Z,8.67
2019-05-18T12:11:07.230Z,9.90
2019-05-18T12:13:36.879Z,8.90
2019-05-18T12:16:06.157Z,7.93
2019-05-18T12:18:35.472Z,7.97
2019-05-18T12:21:05.010Z,8.73
2019-05-18T12:23:34.345Z,8.73
2019-05-18T12:26:03.780Z,7.33
2019-05-18T12:28:33.447Z,7.47
2019-05-18T12:31:02.831Z,6.70
2019-05-18T12:33:32.102Z,6.57
2019-05-18T12:36:01.717Z,7.20
2019-05-18T12:38:30.987Z,7.33
2019-05-18T12:41:00.245Z,6.87
2019-05-18T12:43:29.620Z,6.90
2019-05-18T12:45:58.976Z,6.30
2019-05-18T12:48:28.336Z,8.20
2019-05-18T12:50:57.796Z,7.23
2019-05-18T12:53:27.050Z,7.10
2019-05-18T12:55:56.313Z,6.53
2019-05-18T12:58:25.927Z,6.20
2019-05-18T13:00:55.346Z,6.27
2019-05-18T13:03:24.715Z,6.50
2019-05-18T13:05:54.233Z,6.50
2019-05-18T13:08:23.575Z,7.57
2019-05-18T13:10:52.914Z,8.00
2019-05-18T13:13:22.885Z,8.50
2019-05-18T13:15:52.196Z,8.10
2019-05-18T13:18:21.489Z,7.80
2019-05-18T13:20:51.170Z,7.53
2019-05-18T13:23:20.462Z,8.20
2019-05-18T13:25:49.796Z,7.93
2019-05-18T13:28:19.197Z,7.13
2019-05-18T13:30:48.917Z,7.53
2019-05-18T13:33:18.549Z,7.77
2019-05-18T13:35:47.982Z,7.77
2019-05-18T13:38:17.353Z,7.67
2019-05-18T13:40:46.677Z,8.23
2019-05-18T13:43:16.379Z,8.27
2019-05-18T13:45:45.693Z,8.23
2019-05-18T13:48:14.971Z,7.90
2019-05-18T13:50:44.936Z,8.60
2019-05-18T13:53:14.341Z,8.57
2019-05-18T13:55:43.683Z,9.30
2019-05-18T13:58:13.323Z,9.40
2019-05-18T14:00:42.663Z,9.33
2019-05-18T14:03:11.941Z,10.00
2019-05-18T14:05:41.336Z,9.43
2019-05-18T14:08:15.529Z,7.80
2019-05-18T14:10:41.646Z,7.80
2019-05-18T14:13:11.153Z,8.30
2019-05-18T14:15:40.490Z,7.50
2019-05-18T14:18:09.876Z,7.40
2019-05-18T14:20:40.334Z,7.77
2019-05-18T14:23:09.687Z,7.30
2019-05-18T14:25:39.002Z,6.83
2019-05-18T14:28:08.594Z,6.60
2019-05-18T14:30:37.856Z,6.50
2019-05-18T14:33:07.146Z,7.03
2019-05-18T14:35:36.765Z,6.70
2019-05-18T14:38:06.053Z,7.47
2019-05-18T14:40:35.377Z,7.07
2019-05-18T14:43:05.048Z,7.87
2019-05-18T14:45:34.511Z,7.50
2019-05-18T14:48:03.836Z,7.57
2019-05-18T14:50:33.963Z,7.70
2019-05-18T14:53:03.252Z,7.47
2019-05-18T14:55:34.054Z,7.40
2019-05-18T14:58:03.798Z,7.30
2019-05-18T15:00:33.109Z,8.37
2019-05-18T15:03:02.619Z,7.70
2019-05-18T15:05:32.074Z,8.50
2019-05-18T15:08:01.352Z,8.03
2019-05-18T15:10:30.704Z,8.17
2019-05-18T15:13:00.258Z,8.77
2019-05-18T15:15:29.561Z,8.63
2019-05-18T15:17:58.872Z,10.43
2019-05-18T15:20:28.461Z,9.43
2019-05-18T15:22:57.796Z,9.47
2019-05-18T15:25:27.098Z,9.30
2019-05-18T15:27:56.429Z,8.63
2019-05-18T15:30:25.768Z,10.13
2019-05-18T15:32:55.049Z,8.73
2019-05-18T15:35:24.594Z,8.93
2019-05-18T15:37:53.899Z,8.27
2019-05-18T15:40:23.170Z,9.57
2019-05-18T15:42:52.719Z,9.10
2019-05-18T15:45:24.713Z,9.30
2019-05-18T15:47:53.479Z,8.47
2019-05-18T15:50:23.067Z,9.80
2019-05-18T15:52:52.497Z,8.63
2019-05-18T15:55:21.852Z,8.07
2019-05-18T15:57:51.431Z,8.90
2019-05-18T16:00:21.150Z,9.73
2019-05-18T16:02:50.482Z,8.83
2019-05-18T16:05:20.040Z,8.03
2019-05-18T16:07:49.387Z,8.80
2019-05-18T16:10:19.078Z,9.13
2019-05-18T16:12:48.604Z,9.50
2019-05-18T16:15:18.027Z,8.80
2019-05-18T16:17:47.618Z,9.07
2019-05-18T16:20:17.828Z,10.33
2019-05-18T16:22:47.374Z,9.87
2019-05-18T16:25:17.360Z,8.73
2019-05-18T16:27:46.908Z,9.40
2019-05-18T16:30:17.075Z,10.30
2019-05-18T16:32:46.465Z,10.20
2019-05-18T16:35:16.426Z,10.53
2019-05-18T16:37:45.797Z,10.57
2019-05-18T16:40:15.196Z,10.07
2019-05-18T16:42:46.693Z,10.83
2019-05-18T16:45:15.857Z,10.03
2019-05-18T16:47:45.264Z,11.13
2019-05-18T16:50:15.015Z,9.73
2019-05-18T16:52:44.309Z,11.07
2019-05-18T16:55:13.971Z,11.30
2019-05-18T16:57:43.355Z,10.87
2019-05-18T17:00:16.260Z,10.20
2019-05-18T17:02:45.046Z,10.50
2019-05-18T17:05:15.489Z,11.10
2019-05-18T17:07:44.937Z,10.87
2019-05-18T17:10:15.189Z,11.17
2019-05-18T17:12:44.559Z,10.40
2019-05-18T17:15:14.331Z,10.87
2019-05-18T17:17:43.833Z,10.87
2019-05-18T17:20:13.729Z,10.23
2019-05-18T17:22:43.013Z,10.40
2019-05-18T17:25:12.578Z,11.03
2019-05-18T17:27:42.194Z,9.67
2019-05-18T17:30:11.772Z,10.57
2019-05-18T17:32:41.156Z,9.87
2019-05-18T17:35:11.435Z,10.60
2019-05-18T17:37:40.800Z,10.23
2019-05-18T17:40:11.517Z,10.67
2019-05-18T17:42:40.848Z,10.90
2019-05-18T17:45:11.090Z,12.03
2019-05-18T17:47:40.473Z,10.13
2019-05-18T17:50:10.371Z,10.67
2019-05-18T17:52:39.669Z,10.67
2019-05-18T17:55:09.384Z,10.30
2019-05-18T17:57:38.728Z,10.63
2019-05-18T18:00:08.551Z,10.73
2019-05-18T18:02:38.058Z,10.77
2019-05-18T18:05:07.613Z,10.53
2019-05-18T18:07:36.922Z,10.83
2019-05-18T18:10:06.964Z,11.50
2019-05-18T18:12:36.519Z,11.43
2019-05-18T18:15:06.800Z,11.37
2019-05-18T18:17:36.511Z,12.33
2019-05-18T18:20:06.513Z,12.37
2019-05-18T18:22:35.850Z,12.50
2019-05-18T18:25:05.904Z,12.20
2019-05-18T18:27:35.270Z,12.37
2019-05-18T18:30:05.614Z,12.60
2019-05-18T18:32:35.297Z,12.57
2019-05-18T18:35:04.720Z,12.37
2019-05-18T18:37:34.009Z,12.60
2019-05-18T18:40:03.392Z,12.13
2019-05-18T18:42:32.763Z,13.13
2019-05-18T18:45:02.252Z,12.83
2019-05-18T18:47:31.732Z,12.90
2019-05-18T18:50:01.213Z,12.43
2019-05-18T18:52:30.494Z,12.30
2019-05-18T18:55:00.041Z,12.20
2019-05-18T18:57:40.665Z,12.17
2019-05-18T19:00:00.649Z,12.57
2019-05-18T19:02:30.104Z,13.50
2019-05-18T19:04:59.521Z,13.70
2019-05-18T19:07:28.890Z,13.33
2019-05-18T19:09:58.381Z,13.07
2019-05-18T19:12:27.887Z,12.60
2019-05-18T19:14:57.197Z,13.60
2019-05-18T19:17:26.656Z,13.93
2019-05-18T19:19:56.067Z,12.57
2019-05-18T19:22:25.429Z,12.80
2019-05-18T19:24:55.868Z,12.07
2019-05-18T19:27:25.311Z,12.03
2019-05-18T19:29:54.597Z,12.07
2019-05-18T19:32:24.093Z,12.83
2019-05-18T19:34:53.393Z,12.60
2019-05-18T19:37:26.274Z,12.67
2019-05-18T19:39:53.865Z,12.20
2019-05-18T19:42:23.240Z,11.70
2019-05-18T19:44:52.510Z,12.13
2019-05-18T19:47:22.148Z,13.27
2019-05-18T19:49:51.621Z,13.67
2019-05-18T19:52:21.017Z,13.87
2019-05-18T19:54:50.542Z,14.33
2019-05-18T19:57:19.891Z,14.30
2019-05-18T19:59:49.315Z,13.90
2019-05-18T20:02:19.257Z,15.20
2019-05-18T20:05:05.830Z,14.97
2019-05-18T20:07:19.832Z,14.77
2019-05-18T20:09:49.229Z,14.87
2019-05-18T20:12:18.609Z,14.57
2019-05-18T20:14:48.331Z,14.23
2019-05-18T20:17:17.977Z,14.93
2019-05-18T20:19:47.493Z,14.60
2019-05-18T20:22:17.235Z,17.17
2019-05-18T20:24:46.559Z,16.03
2019-05-18T20:27:16.165Z,16.97
2019-05-18T20:29:46.082Z,17.00
2019-05-18T20:32:15.412Z,17.07
2019-05-18T20:34:44.775Z,16.93
2019-05-18T20:37:14.390Z,17.63
2019-05-18T20:39:43.671Z,18.17
2019-05-18T20:42:13.167Z,18.73
2019-05-18T20:44:42.918Z,16.97
2019-05-18T20:47:12.244Z,17.43
2019-05-18T20:49:41.707Z,16.63
2019-05-18T20:52:11.438Z,16.97
2019-05-18T20:54:40.746Z,16.47
2019-05-18T20:57:10.102Z,16.23
2019-05-18T20:59:39.772Z,17.10
2019-05-18T21:02:09.077Z,16.50
2019-05-18T21:04:38.598Z,15.67
2019-05-18T21:07:08.159Z,16.10
2019-05-18T21:09:37.653Z,16.30
2019-05-18T21:12:07.204Z,16.53
2019-05-18T21:14:36.667Z,15.97
2019-05-18T21:17:06.140Z,16.53
2019-05-18T21:19:35.586Z,17.53
2019-05-18T21:22:05.110Z,17.50
2019-05-18T21:24:34.420Z,16.13
2019-05-18T21:27:03.789Z,18.10
2019-05-18T21:29:33.405Z,18.33
2019-05-18T21:32:02.853Z,18.87
2019-05-18T21:34:32.291Z,17.03
2019-05-18T21:37:01.746Z,17.47
2019-05-18T21:39:31.055Z,17.13
2019-05-18T21:42:00.448Z,17.20
2019-05-18T21:44:29.775Z,17.53
2019-05-18T21:46:59.106Z,17.00
2019-05-18T21:49:28.675Z,15.97
2019-05-18T21:51:57.961Z,16.20
2019-05-18T21:54:27.328Z,16.17
2019-05-18T21:56:57.123Z,16.47
2019-05-18T21:59:26.670Z,15.60
2019-05-18T22:01:56.012Z,14.97
2019-05-18T22:04:25.385Z,15.60
2019-05-18T22:06:54.886Z,16.80
2019-05-18T22:09:24.527Z,16.73
2019-05-18T22:11:54.119Z,15.80
2019-05-18T22:14:23.475Z,16.17
2019-05-18T22:16:52.789Z,16.80
2019-05-18T22:19:22.203Z,16.87
2019-05-18T22:21:51.660Z,14.70
2019-05-18T22:24:21.180Z,17.33
2019-05-18T22:26:50.802Z,16.77
2019-05-18T22:29:20.423Z,15.77
2019-05-18T22:31:49.801Z,16.23
2019-05-18T22:34:19.387Z,17.10
2019-05-18T22:36:48.821Z,18.50
2019-05-18T22:39:18.174Z,18.57
2019-05-18T22:41:47.657Z,18.70
2019-05-18T22:44:17.149Z,19.33
2019-05-18T22:46:46.452Z,18.77
2019-05-18T22:49:15.762Z,20.53
2019-05-18T22:51:45.285Z,20.03
2019-05-18T22:54:14.577Z,21.37
2019-05-18T22:56:43.957Z,21.10
2019-05-18T22:59:13.429Z,20.53
2019-05-18T23:01:42.754Z,19.77
2019-05-18T23:04:12.163Z,18.93
2019-05-18T23:06:41.656Z,18.07
2019-05-18T23:09:11.006Z,18.57
2019-05-18T23:11:40.428Z,18.10
2019-05-18T23:14:10.089Z,17.33
2019-05-18T23:16:39.464Z,15.97
2019-05-18T23:19:08.844Z,18.87
2019-05-18T23:21:38.303Z,16.07
2019-05-18T23:24:07.690Z,16.07
2019-05-18T23:26:37.526Z,16.13
2019-05-18T23:29:07.157Z,15.93
2019-05-18T23:31:36.447Z,16.90
2019-05-18T23:34:05.825Z,14.57
2019-05-18T23:36:35.282Z,15.30
2019-05-18T23:39:05.721Z,15.33
2019-05-18T23:41:35.219Z,15.50
2019-05-18T23:44:04.832Z,15.87
2019-05-18T23:46:34.116Z,14.83
2019-05-18T23:49:11.056Z,15.47
2019-05-18T23:51:34.917Z,14.60
2019-05-18T23:54:04.181Z,15.17
2019-05-18T23:56:33.549Z,15.20
2019-05-18T23:59:03.061Z,14.33
